Time,TemperatureF,DewpointF,PressureIn,WindDirection,WindDirectionDegrees,WindSpeedMPH,WindSpeedGustMPH,Humidity,HourlyPrecipIn,Conditions,Clouds,dailyrainin,SoftwareType,DateUTC
2013-06-11 00:05:00,73.4,13.7,29.72,North,0,0.0,0.0,1,0.00,,,0.00,WUHU216HW,2013-06-11 04:05:00,
2013-06-11 00:35:00,73.4,13.7,29.71,North,0,0.0,0.0,1,0.00,,,0.00,WUHU216HW,2013-06-11 04:35:00,
2013-06-11 01:05:00,73.4,13.7,29.70,North,0,0.0,0.0,1,0.00,,,0.00,WUHU216HW,2013-06-11 05:05:00,
2013-06-11 01:35:00,73.6,13.8,29.69,North,0,0.0,0.0,1,0.02,,,0.00,WUHU216HW,2013-06-11 05:35:00,
2013-06-11 02:05:00,73.3,13.5,29.69,North,0,0.0,0.0,1,0.02,,,0.02,WUHU216HW,2013-06-11 06:05:00,
2013-06-11 02:35:00,73.3,13.5,29.69,North,0,0.0,0.0,1,0.00,,,0.02,WUHU216HW,2013-06-11 06:35:00,
2013-06-11 03:05:00,73.1,13.4,29.68,North,0,0.0,0.0,1,0.00,,,0.02,WUHU216HW,2013-06-11 07:05:00,
2013-06-11 03:35:00,73.3,13.5,29.67,North,0,0.0,0.0,1,0.00,,,0.02,WUHU216HW,2013-06-11 07:35:00,
2013-06-11 04:05:00,72.9,13.2,29.68,North,0,0.0,0.0,1,0.00,,,0.02,WUHU216HW,2013-06-11 08:05:00,
2013-06-11 04:35:00,73.3,13.5,29.69,North,0,0.0,0.0,1,0.00,,,0.02,WUHU216HW,2013-06-11 08:35:00,
2013-06-11 05:05:00,73.3,13.5,29.68,North,0,0.0,0.0,1,0.00,,,0.02,WUHU216HW,2013-06-11 09:05:00,
2013-06-11 05:35:00,73.3,13.5,29.69,North,0,0.0,0.0,1,0.00,,,0.02,WUHU216HW,2013-06-11 09:35:00,
2013-06-11 06:05:00,73.1,13.4,29.68,North,0,0.0,0.0,1,0.00,,,0.02,WUHU216HW,2013-06-11 10:05:00,
2013-06-11 06:35:00,73.1,13.4,29.69,North,0,0.0,0.0,1,0.00,,,0.02,WUHU216HW,2013-06-11 10:35:00,
2013-06-11 07:05:00,73.1,13.4,29.69,North,0,0.0,0.0,1,0.00,,,0.02,WUHU216HW,2013-06-11 11:05:00,
2013-06-11 07:35:00,74.0,14.0,29.70,North,0,0.0,0.0,1,0.00,,,0.02,WUHU216HW,2013-06-11 11:35:00,
2013-06-11 08:05:00,76.1,15.7,29.71,North,0,0.0,0.0,1,0.00,,,0.02,WUHU216HW,2013-06-11 12:05:00,
2013-06-11 08:35:00,80.6,19.1,29.71,North,0,0.0,0.0,1,0.00,,,0.02,WUHU216HW,2013-06-11 12:35:00,
2013-06-11 09:05:00,81.0,19.4,29.71,North,0,0.0,0.0,1,0.00,,,0.02,WUHU216HW,2013-06-11 13:05:00,
2013-06-11 09:35:00,82.4,20.5,29.71,North,0,0.0,0.0,1,0.00,,,0.02,WUHU216HW,2013-06-11 13:35:00,
2013-06-11 10:05:00,81.7,20.0,29.71,North,0,0.0,0.0,1,0.00,,,0.02,WUHU216HW,2013-06-11 14:05:00,
2013-06-11 10:35:00,81.5,19.8,29.71,North,0,0.0,0.0,1,0.00,,,0.02,WUHU216HW,2013-06-11 14:35:00,
2013-06-11 11:05:00,81.5,19.8,29.72,North,0,0.0,0.0,1,0.00,,,0.02,WUHU216HW,2013-06-11 15:05:00,
2013-06-11 11:35:00,82.8,20.8,29.72,North,0,0.0,0.0,1,0.00,,,0.02,WUHU216HW,2013-06-11 15:35:00,
2013-06-11 12:05:00,83.9,21.5,29.71,North,0,0.0,0.0,1,0.00,,,0.02,WUHU216HW,2013-06-11 16:05:00,
2013-06-11 12:35:00,85.3,22.7,29.71,North,0,0.0,0.0,1,0.00,,,0.02,WUHU216HW,2013-06-11 16:35:00,
2013-06-11 13:05:00,87.5,24.4,29.69,North,0,0.0,0.0,1,0.00,,,0.02,WUHU216HW,2013-06-11 17:05:00,
2013-06-11 13:35:00,89.3,25.7,29.69,North,0,0.0,0.0,1,0.00,,,0.02,WUHU216HW,2013-06-11 17:35:00,
2013-06-11 14:05:00,88.9,25.4,29.67,North,0,0.0,0.0,1,0.00,,,0.02,WUHU216HW,2013-06-11 18:05:00,
2013-06-11 14:35:00,88.2,24.9,29.67,North,0,0.0,0.0,1,0.00,,,0.02,WUHU216HW,2013-06-11 18:35:00,
2013-06-11 15:05:00,76.0,15.5,29.74,North,0,0.0,0.0,1,1.32,,,0.02,WUHU216HW,2013-06-11 19:05:00,
2013-06-11 15:35:00,72.5,13.0,29.70,North,0,0.0,0.0,1,3.14,,,1.34,WUHU216HW,2013-06-11 19:35:00,
2013-06-11 16:05:00,72.4,12.8,29.68,North,0,0.0,0.0,1,1.82,,,3.16,WUHU216HW,2013-06-11 20:05:00,
2013-06-11 16:35:00,72.4,12.8,29.69,North,0,0.0,0.0,1,0.00,,,3.16,WUHU216HW,2013-06-11 20:35:00,
2013-06-11 17:05:00,72.7,13.2,29.70,North,0,0.0,0.0,1,0.00,,,3.16,WUHU216HW,2013-06-11 21:05:00,
2013-06-11 17:35:00,72.9,13.2,29.69,North,0,0.0,0.0,1,0.00,,,3.16,WUHU216HW,2013-06-11 21:35:00,
2013-06-11 18:05:00,73.3,13.5,29.71,North,0,0.0,0.0,1,0.00,,,3.16,WUHU216HW,2013-06-11 22:05:00,
2013-06-11 18:35:00,74.0,14.0,29.68,North,0,0.0,0.0,1,0.00,,,3.16,WUHU216HW,2013-06-11 22:35:00,
2013-06-11 19:05:00,74.5,14.4,29.66,North,0,0.0,0.0,1,0.00,,,3.16,WUHU216HW,2013-06-11 23:05:00,
2013-06-11 19:35:00,74.5,14.4,29.65,North,0,0.0,0.0,1,0.00,,,3.16,WUHU216HW,2013-06-11 23:35:00,
2013-06-11 20:05:00,74.5,14.4,29.65,North,0,0.0,0.0,1,0.00,,,3.16,WUHU216HW,2013-06-12 00:05:00,
2013-06-11 20:35:00,74.2,14.2,29.65,North,0,0.0,0.0,1,0.00,,,3.16,WUHU216HW,2013-06-12 00:35:00,
2013-06-11 21:05:00,73.4,13.7,29.65,North,0,0.0,0.0,1,0.00,,,3.16,WUHU216HW,2013-06-12 01:05:00,
2013-06-11 21:35:00,73.1,13.4,29.65,North,0,0.0,0.0,1,0.00,,,3.16,WUHU216HW,2013-06-12 01:35:00,
2013-06-11 22:05:00,73.1,13.4,29.66,North,0,0.0,0.0,1,0.00,,,3.16,WUHU216HW,2013-06-12 02:05:00,
2013-06-11 22:35:00,73.1,13.4,29.67,North,0,0.0,0.0,1,0.00,,,3.16,WUHU216HW,2013-06-12 02:35:00,
2013-06-11 23:05:00,72.7,13.2,29.68,North,0,0.0,0.0,1,0.00,,,3.16,WUHU216HW,2013-06-12 03:05:00,
2013-06-11 23:35:00,72.5,13.0,29.69,North,0,0.0,0.0,1,0.00,,,3.16,WUHU216HW,2013-06-12 03:35:00,